Time;durP1;ratioP1;P1;durP2;ratioP2;P2;SDS_P1;SDS_P2;PMS_P1;PMS_P2;Temp;Humidity;BMP_temperature;BMP_pressure;BME280_temperature;BME280_humidity;BME280_pressure;Samples;Min_cycle;Max_cycle;Signal;HPM_P1;HPM_P2
2022/08/25 00:00:41;;;;;;;8.18;6.03;;;;;;;;;;4987461;28;20053;-86
2022/08/25 00:03:07;;;;;;;11.52;5.90;;;;;;;;;;4987327;28;20508;-86
2022/08/25 00:05:33;;;;;;;10.13;6.05;;;;;;;;;;5005253;28;20025;-85
2022/08/25 00:07:59;;;;;;;7.05;5.80;;;;;;;;;;4988863;28;20088;-86
2022/08/25 00:10:24;;;;;;;9.80;7.18;;;;;;;;;;4987560;28;20041;-86
2022/08/25 00:12:50;;;;;;;7.72;6.03;;;;;;;;;;4988435;28;20037;-85
2022/08/25 00:15:15;;;;;;;7.00;5.55;;;;;;;;;;4986750;28;20042;-85
2022/08/25 00:17:41;;;;;;;9.88;6.97;;;;;;;;;;4989256;28;20033;-86
2022/08/25 00:20:08;;;;;;;9.82;7.00;;;;;;;;;;4978126;28;20034;-85
2022/08/25 00:22:34;;;;;;;10.55;7.63;;;;;;;;;;4989558;28;20046;-85
2022/08/25 00:24:59;;;;;;;9.25;6.70;;;;;;;;;;5007778;28;20090;-85
2022/08/25 00:27:25;;;;;;;8.70;6.47;;;;;;;;;;5007746;28;20057;-85
2022/08/25 00:29:50;;;;;;;8.02;5.72;;;;;;;;;;5012935;28;20029;-86
2022/08/25 00:32:17;;;;;;;7.70;5.38;;;;;;;;;;4992859;28;20030;-85
2022/08/25 00:34:43;;;;;;;9.57;5.45;;;;;;;;;;5011596;28;20049;-85
2022/08/25 00:37:09;;;;;;;7.82;5.90;;;;;;;;;;5014790;28;20038;-85
2022/08/25 00:39:35;;;;;;;7.47;6.07;;;;;;;;;;5010548;28;20034;-85
2022/08/25 00:42:03;;;;;;;9.00;6.22;;;;;;;;;;4991278;28;20029;-85
2022/08/25 00:44:30;;;;;;;7.40;5.85;;;;;;;;;;4993322;28;20490;-85
2022/08/25 00:46:59;;;;;;;7.30;5.60;;;;;;;;;;4995364;28;20037;-85
2022/08/25 00:49:34;;;;;;;9.05;5.90;;;;;;;;;;5008908;28;20042;-85
2022/08/25 00:52:07;;;;;;;7.07;5.55;;;;;;;;;;5014348;28;20065;-85
2022/08/25 00:54:39;;;;;;;7.95;5.93;;;;;;;;;;5000627;28;20052;-85
2022/08/25 00:57:08;;;;;;;9.80;6.75;;;;;;;;;;5029458;28;20034;-85
2022/08/25 00:59:33;;;;;;;9.20;6.65;;;;;;;;;;5022719;28;20037;-85
2022/08/25 01:01:59;;;;;;;9.70;7.22;;;;;;;;;;5010109;28;20041;-85
2022/08/25 01:04:25;;;;;;;11.10;8.02;;;;;;;;;;5020530;28;20407;-85
2022/08/25 01:06:51;;;;;;;10.38;8.05;;;;;;;;;;5013986;28;20431;-83
2022/08/25 01:09:18;;;;;;;10.82;8.10;;;;;;;;;;4995550;28;20192;-84
2022/08/25 01:11:45;;;;;;;14.65;7.95;;;;;;;;;;5017699;28;20104;-85
2022/08/25 01:14:14;;;;;;;13.07;7.97;;;;;;;;;;5013855;28;20056;-85
2022/08/25 01:16:42;;;;;;;10.52;7.30;;;;;;;;;;4993183;28;20045;-85
2022/08/25 01:19:10;;;;;;;9.48;7.03;;;;;;;;;;5010499;28;20616;-85
2022/08/25 01:21:40;;;;;;;9.60;7.40;;;;;;;;;;4994367;28;20046;-85
2022/08/25 01:24:06;;;;;;;9.00;6.53;;;;;;;;;;4992904;28;20083;-85
2022/08/25 01:26:33;;;;;;;9.50;7.07;;;;;;;;;;5014900;28;20507;-85
2022/08/25 01:29:24;;;;;;;12.80;8.63;;;;;;;;;;5005378;28;20033;-85
2022/08/25 01:31:56;;;;;;;14.82;8.73;;;;;;;;;;5009118;28;20091;-84
2022/08/25 01:34:23;;;;;;;12.70;8.77;;;;;;;;;;5008293;28;20050;-85
2022/08/25 01:36:49;;;;;;;15.73;9.60;;;;;;;;;;5011486;28;20092;-84
2022/08/25 01:39:15;;;;;;;10.75;8.45;;;;;;;;;;4985295;28;20155;-85
2022/08/25 01:42:07;;;;;;;12.75;8.90;;;;;;;;;;5008674;28;20566;-84
2022/08/25 01:44:35;;;;;;;12.18;8.85;;;;;;;;;;5008513;28;20042;-85
2022/08/25 01:47:02;;;;;;;12.35;8.75;;;;;;;;;;4987723;28;20042;-84
2022/08/25 01:49:27;;;;;;;14.85;8.68;;;;;;;;;;5010278;28;20483;-85
2022/08/25 01:52:05;;;;;;;15.55;9.05;;;;;;;;;;5009619;28;20125;-85
2022/08/25 01:54:30;;;;;;;12.85;8.43;;;;;;;;;;4991384;28;20531;-86
2022/08/25 01:56:57;;;;;;;11.20;7.82;;;;;;;;;;5007988;28;20036;-84
2022/08/25 01:59:24;;;;;;;14.63;9.63;;;;;;;;;;5003553;28;20132;-86
2022/08/25 02:01:50;;;;;;;14.48;8.88;;;;;;;;;;4987466;28;20065;-86
2022/08/25 02:04:15;;;;;;;12.75;8.55;;;;;;;;;;4989984;28;20069;-85
2022/08/25 02:06:41;;;;;;;15.23;8.93;;;;;;;;;;5004533;28;20631;-85
2022/08/25 02:09:11;;;;;;;10.35;7.85;;;;;;;;;;5009686;28;20774;-85
2022/08/25 02:11:39;;;;;;;14.38;8.77;;;;;;;;;;5007479;28;20076;-85
2022/08/25 02:14:05;;;;;;;11.32;7.72;;;;;;;;;;4991961;28;20069;-85
2022/08/25 02:16:33;;;;;;;12.38;7.95;;;;;;;;;;5003853;28;20069;-85
2022/08/25 02:18:58;;;;;;;15.10;8.18;;;;;;;;;;5009581;28;20045;-85
2022/08/25 02:21:25;;;;;;;17.10;9.30;;;;;;;;;;5001222;28;20038;-85
2022/08/25 02:23:50;;;;;;;13.52;8.30;;;;;;;;;;5006634;28;20038;-85
2022/08/25 02:26:17;;;;;;;12.75;8.27;;;;;;;;;;5004783;28;20121;-85
2022/08/25 02:28:44;;;;;;;11.38;8.45;;;;;;;;;;4988855;28;20033;-85
2022/08/25 02:31:10;;;;;;;12.25;8.85;;;;;;;;;;4991794;28;20053;-85
2022/08/25 02:33:36;;;;;;;16.70;9.27;;;;;;;;;;4985275;28;20074;-85
2022/08/25 02:36:03;;;;;;;14.52;8.82;;;;;;;;;;5011607;28;20108;-85
2022/08/25 02:38:29;;;;;;;13.48;8.75;;;;;;;;;;5010092;28;20029;-86
2022/08/25 02:40:58;;;;;;;14.00;7.95;;;;;;;;;;4989288;28;20471;-86
2022/08/25 02:43:25;;;;;;;13.68;7.80;;;;;;;;;;4991049;28;20038;-86
2022/08/25 02:45:52;;;;;;;11.25;8.63;;;;;;;;;;5007763;28;20042;-86
2022/08/25 02:48:18;;;;;;;14.85;8.77;;;;;;;;;;5010168;28;20076;-85
2022/08/25 02:50:50;;;;;;;16.20;9.73;;;;;;;;;;4990430;28;20487;-86
2022/08/25 02:53:16;;;;;;;12.57;8.02;;;;;;;;;;4991078;28;20060;-86
2022/08/25 02:55:41;;;;;;;12.82;8.63;;;;;;;;;;5008602;28;20041;-85
2022/08/25 02:58:07;;;;;;;12.85;8.23;;;;;;;;;;5004307;28;20193;-86
2022/08/25 03:00:33;;;;;;;13.50;8.60;;;;;;;;;;4988701;28;20046;-84
2022/08/25 03:02:59;;;;;;;14.45;8.85;;;;;;;;;;5009099;28;20104;-85
2022/08/25 03:05:24;;;;;;;12.35;9.32;;;;;;;;;;4989539;28;20081;-85
2022/08/25 03:07:50;;;;;;;14.65;9.45;;;;;;;;;;4984841;28;20519;-86
2022/08/25 03:10:17;;;;;;;12.95;8.98;;;;;;;;;;4973629;28;20628;-85
2022/08/25 03:12:44;;;;;;;12.55;9.50;;;;;;;;;;5004150;28;20041;-86
2022/08/25 03:15:11;;;;;;;13.10;9.25;;;;;;;;;;4986291;28;20069;-85
2022/08/25 03:17:37;;;;;;;11.95;9.40;;;;;;;;;;4990158;28;20025;-84
2022/08/25 03:20:05;;;;;;;15.88;9.98;;;;;;;;;;4986795;28;20042;-84
2022/08/25 03:22:30;;;;;;;14.35;9.93;;;;;;;;;;5007593;28;20053;-85
2022/08/25 03:26:52;;;;;;;15.52;9.95;;;;;;;;;;4989789;28;20045;-84
2022/08/25 03:27:41;;;;;;;13.10;9.07;;;;;;;;;;5002644;28;20046;-85
2022/08/25 03:30:07;;;;;;;12.05;8.32;;;;;;;;;;4989807;28;20022;-85
2022/08/25 03:32:32;;;;;;;13.90;8.60;;;;;;;;;;4986810;28;20057;-84
2022/08/25 03:35:00;;;;;;;15.55;9.38;;;;;;;;;;5005877;28;20077;-85
2022/08/25 03:37:25;;;;;;;11.90;8.80;;;;;;;;;;4990973;28;20096;-85
2022/08/25 03:39:51;;;;;;;13.95;8.35;;;;;;;;;;5001452;28;20042;-85
2022/08/25 03:42:16;;;;;;;12.35;8.20;;;;;;;;;;5005240;28;20068;-85
2022/08/25 03:44:42;;;;;;;12.07;8.63;;;;;;;;;;4990048;28;20112;-85
2022/08/25 03:47:07;;;;;;;13.82;8.70;;;;;;;;;;4991147;28;20034;-84
2022/08/25 03:49:32;;;;;;;14.85;9.38;;;;;;;;;;4989140;28;20034;-84
2022/08/25 03:51:58;;;;;;;16.92;8.95;;;;;;;;;;5004575;28;20108;-84
2022/08/25 03:54:24;;;;;;;14.27;9.05;;;;;;;;;;4990285;28;20112;-85
2022/08/25 03:56:51;;;;;;;14.20;8.82;;;;;;;;;;4985699;28;20022;-84
2022/08/25 03:59:16;;;;;;;15.70;8.98;;;;;;;;;;5005438;28;20042;-85
2022/08/25 04:01:43;;;;;;;16.10;8.65;;;;;;;;;;4987992;28;20034;-85
2022/08/25 04:04:11;;;;;;;14.23;9.27;;;;;;;;;;5007282;28;20042;-85
2022/08/25 04:06:38;;;;;;;14.15;9.07;;;;;;;;;;5005581;28;20474;-85
2022/08/25 04:09:03;;;;;;;13.25;8.70;;;;;;;;;;5008141;28;20040;-85
2022/08/25 04:11:29;;;;;;;15.05;9.93;;;;;;;;;;4990868;28;20022;-85
2022/08/25 04:13:56;;;;;;;13.75;9.60;;;;;;;;;;4983902;28;20049;-84
2022/08/25 04:16:24;;;;;;;13.63;8.32;;;;;;;;;;5006818;28;20038;-85
2022/08/25 04:18:50;;;;;;;13.45;8.93;;;;;;;;;;5006228;28;20042;-85
2022/08/25 04:21:17;;;;;;;12.98;8.73;;;;;;;;;;5004700;28;20038;-85
2022/08/25 04:23:43;;;;;;;12.50;8.18;;;;;;;;;;4998228;28;20038;-84
2022/08/25 04:26:15;;;;;;;11.43;7.60;;;;;;;;;;5005848;28;20034;-84
2022/08/25 04:28:41;;;;;;;11.73;7.72;;;;;;;;;;4974234;28;20046;-84
2022/08/25 04:31:08;;;;;;;11.57;8.32;;;;;;;;;;5004679;28;20117;-85
2022/08/25 04:33:35;;;;;;;11.32;7.53;;;;;;;;;;4987261;28;20030;-85
2022/08/25 04:36:01;;;;;;;10.65;7.43;;;;;;;;;;5003793;28;20033;-84
2022/08/25 04:38:27;;;;;;;13.40;8.02;;;;;;;;;;5006384;28;20487;-84
2022/08/25 04:41:00;;;;;;;10.90;7.30;;;;;;;;;;5006432;28;20034;-85
2022/08/25 04:43:26;;;;;;;11.05;8.15;;;;;;;;;;4983185;28;20547;-87
2022/08/25 04:45:52;;;;;;;10.70;7.30;;;;;;;;;;5004280;28;20034;-85
2022/08/25 04:48:18;;;;;;;13.82;8.05;;;;;;;;;;4988874;28;20062;-85
2022/08/25 04:50:43;;;;;;;11.77;8.23;;;;;;;;;;4989393;28;20022;-85
2022/08/25 04:53:09;;;;;;;10.52;7.65;;;;;;;;;;5005867;28;20053;-85
2022/08/25 04:55:44;;;;;;;10.60;7.32;;;;;;;;;;4981498;28;20538;-85
2022/08/25 04:58:09;;;;;;;14.10;7.60;;;;;;;;;;5005450;28;20046;-85
2022/08/25 05:00:36;;;;;;;11.57;7.03;;;;;;;;;;5008478;28;20046;-84
2022/08/25 05:03:02;;;;;;;9.98;6.80;;;;;;;;;;4986238;28;20072;-84
2022/08/25 05:05:29;;;;;;;11.27;6.88;;;;;;;;;;4986892;28;20081;-84
2022/08/25 05:07:54;;;;;;;9.52;7.05;;;;;;;;;;5006188;28;20045;-85
2022/08/25 05:10:20;;;;;;;12.13;6.88;;;;;;;;;;5020973;28;20030;-84
2022/08/25 05:12:46;;;;;;;13.02;6.85;;;;;;;;;;5004651;28;20092;-84
2022/08/25 05:17:56;;;;;;;15.20;6.70;;;;;;;;;;5016660;28;20542;-84
2022/08/25 05:20:22;;;;;;;11.73;7.35;;;;;;;;;;4988837;28;20057;-84
2022/08/25 05:22:47;;;;;;;13.02;7.28;;;;;;;;;;5013771;28;20029;-84
2022/08/25 05:25:13;;;;;;;9.75;6.43;;;;;;;;;;4992002;28;20419;-85
2022/08/25 05:27:42;;;;;;;10.05;5.88;;;;;;;;;;5009945;28;20101;-84
2022/08/25 05:30:10;;;;;;;10.43;6.28;;;;;;;;;;5007966;28;20050;-86
2022/08/25 05:33:02;;;;;;;9.45;6.28;;;;;;;;;;4990556;28;20156;-85
2022/08/25 05:35:28;;;;;;;10.10;6.40;;;;;;;;;;4947182;28;20051;-86
2022/08/25 05:37:56;;;;;;;9.85;6.47;;;;;;;;;;4986159;28;20505;-86
2022/08/25 05:40:21;;;;;;;10.15;5.80;;;;;;;;;;5010930;28;20045;-86
2022/08/25 05:42:47;;;;;;;7.97;6.47;;;;;;;;;;5009147;28;20403;-86
2022/08/25 05:45:13;;;;;;;9.45;5.20;;;;;;;;;;5009876;28;20038;-86
2022/08/25 05:47:39;;;;;;;12.68;5.57;;;;;;;;;;4990268;28;20048;-86
2022/08/25 05:50:06;;;;;;;9.02;5.40;;;;;;;;;;4988480;28;20109;-87
2022/08/25 05:52:31;;;;;;;11.25;5.60;;;;;;;;;;4992906;28;20675;-87
2022/08/25 05:54:57;;;;;;;11.85;6.10;;;;;;;;;;4992174;28;20041;-87
2022/08/25 05:57:22;;;;;;;8.10;5.00;;;;;;;;;;4984530;28;20727;-86
2022/08/25 05:59:48;;;;;;;10.23;5.63;;;;;;;;;;4980580;28;20524;-86
2022/08/25 06:04:57;;;;;;;10.60;5.10;;;;;;;;;;4988273;28;20082;-86
2022/08/25 06:07:23;;;;;;;10.88;5.43;;;;;;;;;;4974278;28;20038;-87
2022/08/25 06:09:48;;;;;;;9.95;5.90;;;;;;;;;;4978332;28;20022;-86
2022/08/25 06:12:15;;;;;;;19.60;6.78;;;;;;;;;;4988212;28;20504;-88
2022/08/25 06:14:41;;;;;;;13.00;6.03;;;;;;;;;;4977604;28;20013;-87
2022/08/25 06:17:07;;;;;;;16.20;5.88;;;;;;;;;;4997240;28;20033;-87
2022/08/25 06:19:33;;;;;;;9.32;5.15;;;;;;;;;;4978161;28;20085;-87
2022/08/25 06:21:58;;;;;;;13.38;5.63;;;;;;;;;;4962207;28;20039;-87
2022/08/25 06:24:27;;;;;;;9.30;5.10;;;;;;;;;;4970712;28;20389;-87
2022/08/25 06:26:53;;;;;;;10.88;4.82;;;;;;;;;;4991434;28;20033;-87
2022/08/25 06:29:19;;;;;;;7.40;5.03;;;;;;;;;;4967621;28;20022;-87
2022/08/25 06:31:46;;;;;;;6.80;5.10;;;;;;;;;;4982060;28;20177;-84
2022/08/25 06:34:12;;;;;;;9.82;5.78;;;;;;;;;;4977938;28;20432;-84
2022/08/25 06:36:39;;;;;;;6.30;4.90;;;;;;;;;;4993982;28;20042;-85
2022/08/25 06:39:04;;;;;;;14.90;5.45;;;;;;;;;;4998330;28;20056;-84
2022/08/25 06:41:30;;;;;;;7.30;4.97;;;;;;;;;;4966001;28;20066;-85
2022/08/25 06:43:57;;;;;;;5.80;4.15;;;;;;;;;;4969113;28;20042;-87
2022/08/25 06:46:25;;;;;;;9.65;5.82;;;;;;;;;;4972358;28;20133;-87
2022/08/25 06:48:51;;;;;;;44.05;7.90;;;;;;;;;;4985250;28;20026;-87
2022/08/25 06:51:18;;;;;;;66.00;9.48;;;;;;;;;;4973350;28;20034;-88
2022/08/25 06:53:47;;;;;;;10.57;4.63;;;;;;;;;;4973950;28;20026;-87
2022/08/25 06:56:15;;;;;;;11.30;4.40;;;;;;;;;;4990416;28;20030;-89
2022/08/25 06:58:40;;;;;;;7.28;4.30;;;;;;;;;;4971580;28;20439;-90
2022/08/25 07:01:12;;;;;;;6.50;3.95;;;;;;;;;;4986756;28;20046;-89
2022/08/25 07:03:38;;;;;;;9.13;4.22;;;;;;;;;;5008225;28;20113;-89
2022/08/25 07:06:04;;;;;;;6.38;3.97;;;;;;;;;;4985234;28;20149;-89
2022/08/25 07:08:30;;;;;;;13.40;4.70;;;;;;;;;;5001956;28;20014;-90
2022/08/25 07:10:56;;;;;;;7.03;4.85;;;;;;;;;;4989679;28;20038;-91
2022/08/25 07:13:22;;;;;;;6.57;4.53;;;;;;;;;;4984197;28;20042;-91
2022/08/25 07:15:52;;;;;;;8.82;5.15;;;;;;;;;;4984678;28;20097;-91
2022/08/25 07:18:18;;;;;;;7.13;4.07;;;;;;;;;;4991416;28;20061;-91
2022/08/25 07:20:43;;;;;;;8.00;3.80;;;;;;;;;;4993885;28;20045;-93
2022/08/25 07:23:09;;;;;;;6.18;3.60;;;;;;;;;;5007435;28;20033;-93
2022/08/25 07:25:34;;;;;;;6.70;3.70;;;;;;;;;;5004273;28;20129;-94
2022/08/25 07:28:00;;;;;;;8.25;3.60;;;;;;;;;;4987027;28;20736;-87
2022/08/25 07:30:26;;;;;;;5.75;3.60;;;;;;;;;;4985342;28;20112;-90
2022/08/25 07:32:52;;;;;;;10.40;3.72;;;;;;;;;;4984523;28;20030;-89
2022/08/25 07:35:19;;;;;;;4.95;2.95;;;;;;;;;;4983186;28;20033;-91
2022/08/25 07:37:48;;;;;;;6.35;3.30;;;;;;;;;;5001081;28;20041;-88
2022/08/25 07:40:20;;;;;;;7.95;3.30;;;;;;;;;;4996610;28;20124;-90
2022/08/25 07:42:55;;;;;;;5.65;2.78;;;;;;;;;;4984374;28;20062;-90
2022/08/25 07:45:29;;;;;;;5.75;3.10;;;;;;;;;;4983609;28;20537;-88
2022/08/25 07:48:01;;;;;;;9.45;3.30;;;;;;;;;;4994833;28;20180;-88
2022/08/25 07:50:28;;;;;;;6.63;3.30;;;;;;;;;;4978856;28;20018;-87
2022/08/25 07:52:55;;;;;;;5.80;3.17;;;;;;;;;;4983732;28;20526;-87
2022/08/25 07:55:25;;;;;;;3.95;3.15;;;;;;;;;;4980916;28;20052;-86
2022/08/25 07:57:51;;;;;;;10.10;3.50;;;;;;;;;;4989356;28;20034;-88
2022/08/25 08:00:17;;;;;;;3.97;3.10;;;;;;;;;;4988457;28;20030;-86
2022/08/25 08:02:43;;;;;;;4.32;2.90;;;;;;;;;;5001873;28;20105;-86
2022/08/25 08:05:10;;;;;;;4.15;2.90;;;;;;;;;;4981762;28;20734;-86
2022/08/25 08:07:36;;;;;;;9.23;3.60;;;;;;;;;;4988261;28;20035;-87
2022/08/25 08:10:03;;;;;;;4.13;3.15;;;;;;;;;;4988833;28;20019;-86
2022/08/25 08:12:28;;;;;;;3.65;2.92;;;;;;;;;;4985659;28;20069;-87
2022/08/25 08:14:54;;;;;;;5.65;2.90;;;;;;;;;;4985017;28;20049;-88
2022/08/25 08:17:19;;;;;;;6.53;3.13;;;;;;;;;;4988834;28;20350;-86
2022/08/25 08:19:45;;;;;;;4.78;3.10;;;;;;;;;;4986024;28;20042;-89
2022/08/25 08:22:14;;;;;;;5.15;2.97;;;;;;;;;;4986153;28;20034;-87
2022/08/25 08:24:42;;;;;;;3.75;2.85;;;;;;;;;;5007786;28;20089;-88
2022/08/25 08:27:12;;;;;;;5.50;2.90;;;;;;;;;;4985597;28;20037;-88
2022/08/25 08:29:39;;;;;;;10.52;3.30;;;;;;;;;;4983027;28;20021;-88
2022/08/25 08:32:08;;;;;;;4.93;3.00;;;;;;;;;;4986008;28;20054;-88
2022/08/25 08:34:36;;;;;;;6.10;2.90;;;;;;;;;;4986884;28;20538;-86
2022/08/25 08:37:02;;;;;;;6.15;3.10;;;;;;;;;;4989877;28;20419;-88
2022/08/25 08:39:29;;;;;;;6.75;3.15;;;;;;;;;;4986945;28;20038;-85
2022/08/25 08:42:16;;;;;;;4.22;2.75;;;;;;;;;;4982853;28;20455;-87
2022/08/25 08:44:48;;;;;;;5.85;2.80;;;;;;;;;;5002854;28;20065;-87
2022/08/25 08:47:42;;;;;;;5.63;3.20;;;;;;;;;;4984543;28;20534;-89
2022/08/25 08:50:32;;;;;;;3.88;3.00;;;;;;;;;;4980993;28;20430;-88
2022/08/25 08:53:01;;;;;;;6.32;3.13;;;;;;;;;;5006251;28;20160;-87
2022/08/25 08:55:43;;;;;;;7.97;3.40;;;;;;;;;;4983563;28;20100;-88
2022/08/25 08:58:20;;;;;;;6.60;3.25;;;;;;;;;;4987191;28;20049;-88
2022/08/25 09:00:53;;;;;;;4.43;2.83;;;;;;;;;;4990943;28;20046;-89
2022/08/25 09:03:38;;;;;;;4.37;2.77;;;;;;;;;;4991295;28;20048;-88
2022/08/25 09:06:22;;;;;;;3.72;3.00;;;;;;;;;;4978661;28;20023;-88
2022/08/25 09:08:57;;;;;;;2.97;2.67;;;;;;;;;;4984749;28;20033;-87
2022/08/25 09:11:40;;;;;;;4.07;2.67;;;;;;;;;;4989453;28;20092;-88
2022/08/25 09:14:28;;;;;;;3.20;2.88;;;;;;;;;;4987855;28;20056;-88
2022/08/25 09:17:24;;;;;;;3.17;2.65;;;;;;;;;;4990910;28;20041;-88
2022/08/25 09:20:45;;;;;;;5.05;2.60;;;;;;;;;;4986768;28;20136;-86
2022/08/25 09:26:56;;;;;;;;;;;;;;;;;;;;;
2022/08/25 09:30:13;;;;;;;7.60;2.65;;;;;;;;;;4985451;28;20038;-91
2022/08/25 09:33:24;;;;;;;8.32;2.58;;;;;;;;;;4948607;28;20039;-89
2022/08/25 09:36:15;;;;;;;8.50;2.47;;;;;;;;;;4968408;28;20201;-88
2022/08/25 09:38:46;;;;;;;4.00;3.00;;;;;;;;;;4966829;28;20077;-88
2022/08/25 09:41:21;;;;;;;6.75;3.03;;;;;;;;;;4997470;28;20541;-87
2022/08/25 09:44:02;;;;;;;3.85;2.67;;;;;;;;;;4970410;28;20123;-86
2022/08/25 09:46:28;;;;;;;3.20;2.90;;;;;;;;;;4981811;28;20078;-87
2022/08/25 09:48:56;;;;;;;9.85;3.00;;;;;;;;;;4995698;28;20038;-86
2022/08/25 09:51:27;;;;;;;4.22;2.97;;;;;;;;;;4984062;28;20041;-87
2022/08/25 09:53:56;;;;;;;3.80;3.00;;;;;;;;;;5001426;28;20022;-87
2022/08/25 09:56:31;;;;;;;4.15;2.60;;;;;;;;;;4990708;28;20523;-88
2022/08/25 09:59:24;;;;;;;3.63;2.90;;;;;;;;;;4985739;28;20516;-87
2022/08/25 10:02:00;;;;;;;4.07;2.85;;;;;;;;;;4992345;28;20053;-88
2022/08/25 10:04:28;;;;;;;4.15;2.97;;;;;;;;;;5005741;28;20038;-87
2022/08/25 10:06:54;;;;;;;7.28;3.05;;;;;;;;;;4993077;28;20043;-88
2022/08/25 10:09:38;;;;;;;8.68;2.65;;;;;;;;;;4991081;28;20038;-91
2022/08/25 10:12:16;;;;;;;2.95;2.50;;;;;;;;;;4985823;28;20034;-88
2022/08/25 10:14:42;;;;;;;3.05;2.42;;;;;;;;;;4990246;28;20025;-89
2022/08/25 10:17:25;;;;;;;3.30;2.67;;;;;;;;;;5001239;28;20084;-87
2022/08/25 10:20:09;;;;;;;;;;;;;;;;;;4987800;28;20034;-87
2022/08/25 10:22:35;;;;;;;6.25;2.85;;;;;;;;;;4991799;28;19917;-87
2022/08/25 10:25:03;;;;;;;4.10;2.55;;;;;;;;;;4985671;28;20038;-89
2022/08/25 10:28:01;;;;;;;4.03;2.67;;;;;;;;;;4984062;28;20045;-88
2022/08/25 10:30:41;;;;;;;2.90;2.55;;;;;;;;;;5003947;28;20050;-88
2022/08/25 10:33:31;;;;;;;3.00;2.28;;;;;;;;;;5006832;28;20034;-84
2022/08/25 10:36:13;;;;;;;3.75;2.60;;;;;;;;;;4987910;28;20026;-86
2022/08/25 10:38:46;;;;;;;5.85;2.50;;;;;;;;;;4991151;28;20037;-88
2022/08/25 10:41:29;;;;;;;4.18;2.65;;;;;;;;;;4995377;28;20041;-89
2022/08/25 10:47:08;;;;;;;4.22;2.80;;;;;;;;;;5005515;28;20632;-88
2022/08/25 10:49:44;;;;;;;5.25;2.55;;;;;;;;;;5003068;28;20854;-87
2022/08/25 10:52:36;;;;;;;2.97;2.47;;;;;;;;;;5005274;28;20034;-85
2022/08/25 10:55:24;;;;;;;4.25;2.50;;;;;;;;;;5004506;28;20427;-85
2022/08/25 10:58:11;;;;;;;3.13;2.55;;;;;;;;;;5009012;28;20064;-85
2022/08/25 11:00:48;;;;;;;5.85;2.88;;;;;;;;;;4991621;28;20045;-85
2022/08/25 11:03:33;;;;;;;4.95;2.72;;;;;;;;;;4997067;28;20026;-85
2022/08/25 11:06:01;;;;;;;4.97;2.75;;;;;;;;;;5007512;28;20026;-87
2022/08/25 11:08:27;;;;;;;3.95;2.47;;;;;;;;;;5010442;28;20057;-86
2022/08/25 11:11:25;;;;;;;3.17;2.40;;;;;;;;;;4988227;28;20101;-86
2022/08/25 11:13:56;;;;;;;7.30;2.67;;;;;;;;;;5008657;28;20042;-85
2022/08/25 11:16:27;;;;;;;6.80;2.50;;;;;;;;;;4987973;28;20053;-86
2022/08/25 11:18:55;;;;;;;3.03;2.67;;;;;;;;;;5005561;28;20072;-87
2022/08/25 11:21:28;;;;;;;2.85;2.60;;;;;;;;;;4996722;28;20081;-87
2022/08/25 11:24:23;;;;;;;3.28;2.50;;;;;;;;;;5000494;28;20055;-87
2022/08/25 11:26:54;;;;;;;5.20;2.72;;;;;;;;;;4967003;28;20050;-86
2022/08/25 11:29:23;;;;;;;2.78;2.50;;;;;;;;;;4964911;28;20050;-85
2022/08/25 11:31:52;;;;;;;3.67;2.50;;;;;;;;;;4977954;28;20141;-86
2022/08/25 11:34:18;;;;;;;3.35;3.03;;;;;;;;;;4993962;28;20042;-87
2022/08/25 11:36:53;;;;;;;6.95;2.90;;;;;;;;;;4986376;28;20137;-87
2022/08/25 11:39:34;;;;;;;3.13;2.38;;;;;;;;;;4975247;28;20045;-86
2022/08/25 11:41:59;;;;;;;3.42;2.60;;;;;;;;;;4981202;28;20054;-87
2022/08/25 11:44:51;;;;;;;4.18;2.75;;;;;;;;;;4971886;28;20054;-87
2022/08/25 11:47:23;;;;;;;3.22;2.72;;;;;;;;;;4976279;28;20132;-86
2022/08/25 11:50:05;;;;;;;4.78;2.70;;;;;;;;;;4994498;28;20054;-86
2022/08/25 11:52:30;;;;;;;5.15;2.60;;;;;;;;;;4983559;28;20046;-87
2022/08/25 11:55:09;;;;;;;3.38;2.80;;;;;;;;;;4960718;28;20042;-87
2022/08/25 11:57:36;;;;;;;4.90;2.70;;;;;;;;;;4987228;28;20117;-86
2022/08/25 12:00:16;;;;;;;3.40;3.10;;;;;;;;;;4962256;28;20062;-87
2022/08/25 12:02:49;;;;;;;3.70;2.92;;;;;;;;;;4983039;28;20018;-86
2022/08/25 12:05:18;;;;;;;3.08;2.78;;;;;;;;;;4968475;28;20077;-85
2022/08/25 12:10:52;;;;;;;2.97;2.63;;;;;;;;;;4975530;28;20093;-86
2022/08/25 12:13:47;;;;;;;3.80;2.83;;;;;;;;;;4977486;28;20042;-86
2022/08/25 12:16:33;;;;;;;3.80;2.78;;;;;;;;;;4988375;28;20041;-86
2022/08/25 12:19:34;;;;;;;3.58;3.00;;;;;;;;;;4960114;28;20539;-86
2022/08/25 12:22:02;;;;;;;3.20;2.90;;;;;;;;;;4965185;28;20053;-86
2022/08/25 12:24:42;;;;;;;3.75;2.95;;;;;;;;;;4978173;28;20053;-86
2022/08/25 12:27:27;;;;;;;4.35;2.80;;;;;;;;;;4983668;28;21891;-85
2022/08/25 12:30:40;;;;;;;3.90;2.78;;;;;;;;;;4983149;28;20243;-86
2022/08/25 12:33:18;;;;;;;3.65;2.50;;;;;;;;;;4992518;28;20058;-86
2022/08/25 12:35:53;;;;;;;5.28;2.80;;;;;;;;;;4976445;28;20023;-86
2022/08/25 12:38:32;;;;;;;3.58;2.60;;;;;;;;;;4984351;28;20057;-85
2022/08/25 12:41:20;;;;;;;4.25;2.92;;;;;;;;;;4956427;28;20539;-86
2022/08/25 12:43:48;;;;;;;2.92;2.60;;;;;;;;;;4958344;28;20030;-87
2022/08/25 12:46:19;;;;;;;2.88;2.60;;;;;;;;;;4958740;28;20153;-87
2022/08/25 12:49:14;;;;;;;5.35;3.00;;;;;;;;;;4978913;28;20125;-86
2022/08/25 12:51:42;;;;;;;3.25;2.83;;;;;;;;;;4977346;28;20048;-86
2022/08/25 12:54:27;;;;;;;5.32;2.78;;;;;;;;;;4977283;28;20062;-87
2022/08/25 12:56:56;;;;;;;6.35;2.97;;;;;;;;;;4983910;28;20046;-88
2022/08/25 12:59:38;;;;;;;4.78;2.70;;;;;;;;;;4961516;28;20031;-86
2022/08/25 13:02:09;;;;;;;4.82;2.88;;;;;;;;;;4992175;28;20049;-88
2022/08/25 13:04:38;;;;;;;10.05;3.20;;;;;;;;;;4987005;28;20050;-87
2022/08/25 13:07:28;;;;;;;3.80;2.78;;;;;;;;;;4980056;28;20571;-87
2022/08/25 13:10:10;;;;;;;4.05;3.00;;;;;;;;;;4979598;28;20043;-86
2022/08/25 13:12:47;;;;;;;4.32;2.90;;;;;;;;;;4970287;28;20097;-86
2022/08/25 13:15:26;;;;;;;6.78;3.15;;;;;;;;;;4980147;28;20417;-85
2022/08/25 13:17:52;;;;;;;4.05;2.63;;;;;;;;;;4979605;28;20051;-86
2022/08/25 13:20:22;;;;;;;4.32;2.88;;;;;;;;;;4964789;28;20062;-85
2022/08/25 13:22:51;;;;;;;9.65;4.63;;;;;;;;;;4981746;28;20036;-89
2022/08/25 13:25:21;;;;;;;8.00;4.18;;;;;;;;;;4962111;28;20054;-87
2022/08/25 13:27:53;;;;;;;11.65;5.35;;;;;;;;;;4984447;28;20090;-85
2022/08/25 13:30:39;;;;;;;14.40;4.90;;;;;;;;;;4989251;28;20053;-84
2022/08/25 13:33:19;;;;;;;10.18;4.80;;;;;;;;;;4998646;28;20102;-84
2022/08/25 13:37:26;;;;;;;7.50;5.10;;;;;;;;;;4994652;28;20098;-85
2022/08/25 13:38:35;;;;;;;7.15;4.70;;;;;;;;;;4999223;28;20057;-84
2022/08/25 13:41:02;;;;;;;12.23;4.72;;;;;;;;;;4971644;28;20216;-84
2022/08/25 13:43:28;;;;;;;6.63;4.72;;;;;;;;;;4996280;28;20066;-85
2022/08/25 13:45:53;;;;;;;6.15;4.68;;;;;;;;;;4992140;28;20065;-84
2022/08/25 13:48:35;;;;;;;8.80;4.60;;;;;;;;;;4985288;28;20061;-86
2022/08/25 13:51:19;;;;;;;9.18;4.50;;;;;;;;;;4968965;28;20076;-84
2022/08/25 13:53:53;;;;;;;6.07;3.92;;;;;;;;;;4989815;28;20061;-85
2022/08/25 13:56:30;;;;;;;5.82;4.55;;;;;;;;;;4986791;28;20042;-85
2022/08/25 13:58:58;;;;;;;8.23;4.85;;;;;;;;;;4991530;28;20025;-86
2022/08/25 14:01:30;;;;;;;7.85;4.75;;;;;;;;;;4962380;28;20157;-84
2022/08/25 14:04:17;;;;;;;4.15;3.75;;;;;;;;;;4986873;28;20039;-83
2022/08/25 14:06:45;;;;;;;6.10;4.07;;;;;;;;;;4970576;28;20155;-87
2022/08/25 14:09:15;;;;;;;7.80;4.15;;;;;;;;;;4983937;28;20035;-85
2022/08/25 14:11:44;;;;;;;5.95;4.00;;;;;;;;;;4975833;28;20034;-87
2022/08/25 14:14:31;;;;;;;6.28;4.15;;;;;;;;;;4983671;28;20043;-85
2022/08/25 14:17:08;;;;;;;4.55;4.03;;;;;;;;;;4987142;28;20451;-85
2022/08/25 14:19:36;;;;;;;7.00;5.28;;;;;;;;;;4990982;28;20407;-84
2022/08/25 14:22:02;;;;;;;11.35;7.20;;;;;;;;;;4973356;28;20050;-84
2022/08/25 14:24:33;;;;;;;11.52;7.28;;;;;;;;;;4976609;28;20096;-89
2022/08/25 14:27:00;;;;;;;12.18;7.20;;;;;;;;;;4988074;28;20048;-87
2022/08/25 14:29:26;;;;;;;10.60;7.80;;;;;;;;;;4982040;28;20128;-83
2022/08/25 14:31:52;;;;;;;16.30;8.35;;;;;;;;;;4985139;28;20523;-85
2022/08/25 14:34:21;;;;;;;12.38;7.05;;;;;;;;;;4990251;28;20028;-91
2022/08/25 14:36:47;;;;;;;13.60;7.63;;;;;;;;;;4965878;28;20039;-83
2022/08/25 14:39:19;;;;;;;15.10;7.63;;;;;;;;;;4976685;28;20557;-87
2022/08/25 14:41:45;;;;;;;16.17;8.13;;;;;;;;;;4979053;28;20416;-83
2022/08/25 14:44:11;;;;;;;10.88;7.10;;;;;;;;;;4978144;28;20583;-84
2022/08/25 14:46:49;;;;;;;13.32;8.48;;;;;;;;;;4982646;28;20114;-83
2022/08/25 14:49:19;;;;;;;9.82;7.38;;;;;;;;;;4967016;28;20513;-83
2022/08/25 14:51:45;;;;;;;13.40;7.72;;;;;;;;;;4983821;28;21004;-89
2022/08/25 14:54:13;;;;;;;11.45;8.20;;;;;;;;;;4990911;28;20045;-82
2022/08/25 14:56:39;;;;;;;13.43;7.72;;;;;;;;;;4979817;28;20048;-83
2022/08/25 14:59:04;;;;;;;13.32;7.60;;;;;;;;;;4986845;28;20038;-83
2022/08/25 15:01:30;;;;;;;13.48;8.05;;;;;;;;;;4982596;28;20920;-84
2022/08/25 15:04:11;;;;;;;13.43;7.78;;;;;;;;;;4990236;28;20096;-85
2022/08/25 15:06:41;;;;;;;17.42;9.23;;;;;;;;;;4953651;28;20069;-84
2022/08/25 15:09:07;;;;;;;11.07;8.15;;;;;;;;;;4979493;28;20038;-83
2022/08/25 15:11:35;;;;;;;9.85;8.05;;;;;;;;;;4992620;28;20539;-85
2022/08/25 15:14:00;;;;;;;25.60;7.85;;;;;;;;;;4975950;28;20469;-86
2022/08/25 15:16:36;;;;;;;12.75;7.35;;;;;;;;;;4997818;28;20068;-83